Geronimo — PD6553 — position and weather

sailwx.info

Track history (hours):
 
Tides and Currents Weather Stations Pressure Air Temp Water Temp Dewpoint Dewpoint Depression Visibility Wind Speed Wind Dir Waves Ship Positions

Geronimo

Last reported at 2015-Jul-04 10:33 UTC. Time now 2015-Jul-04 13:43 UTC.
Position N 38°46' E 001°25'.

Length 20 m; draft 2.9 m.

Type: Sailing vessel. MMSI: 244620501.

Date/timePositionNaut miles runAvg speedWind from/ knotsBaromVisibWave heightAir tempDewpointWater temp
2015-Jul-04 10:33N 38°46' E 001°25'1 0.5
2015-Jul-04 09:20N 38°47' E 001°26'0 0.0
2015-Jul-04 08:14N 38°47' E 001°26'0 0.0
2015-Jul-04 07:32N 38°47' E 001°26'0 0.0
2015-Jul-03 19:08N 38°47' E 001°26'0 0.0
2015-Jul-03 18:26N 38°47' E 001°26'1 0.9
2015-Jul-03 17:33N 38°46' E 001°25'8 7.7
2015-Jul-03 16:33N 38°53' E 001°30'8 7.8
2015-Jul-03 15:33N 38°58' E 001°37'7 7.2
2015-Jul-03 14:33N 39°04' E 001°43'8 8.4
2015-Jul-03 13:33N 39°09' E 001°51'8 8.1
2015-Jul-03 12:34N 39°14' E 001°59'8 8.0
2015-Jul-03 11:33N 39°19' E 002°07'8 8.2
2015-Jul-03 10:33N 39°26' E 002°14'10 0.6
2015-Jul-02 18:26N 39°32' E 002°23'0 0.0
2015-Jul-02 16:24N 39°32' E 002°23'5 5.9
2015-Jul-02 15:33N 39°29' E 002°27'7 7.3
2015-Jul-02 14:33N 39°31' E 002°36'4 3.7
2015-Jul-02 13:33N 39°34' E 002°38'0 0.4
2015-Jul-02 12:33N 39°34' E 002°39'0 0.0
2015-Jul-02 11:33N 39°34' E 002°39'0 0.0
2015-Jul-02 10:33N 39°34' E 002°39'0 0.0
2015-Jul-02 09:33N 39°34' E 002°39'0 0.0
2015-Jul-02 08:33N 39°34' E 002°39'0 0.0
2015-Jul-02 07:33N 39°34' E 002°39'0 0.0
2015-Jul-02 06:33N 39°34' E 002°39'0 0.0
2015-Jul-02 05:33N 39°34' E 002°39'0 0.0
2015-Jul-02 04:33N 39°34' E 002°39'0 0.0
2015-Jul-02 03:33N 39°34' E 002°39'0 0.0
2015-Jul-02 02:33N 39°34' E 002°39'0 0.0
2015-Jul-02 01:33N 39°34' E 002°39'0 0.0
2015-Jul-02 00:33N 39°34' E 002°39'0 0.0
2015-Jul-01 23:33N 39°34' E 002°39'0 0.0
2015-Jul-01 22:33N 39°34' E 002°39'0 0.0
2015-Jul-01 21:33N 39°34' E 002°39'0 0.0
2015-Jul-01 20:33N 39°34' E 002°39'0 0.0
2015-Jul-01 19:33N 39°34' E 002°39'0 0.0
2015-Jul-01 18:33N 39°34' E 002°39'0 0.0
2015-Jul-01 17:33N 39°34' E 002°39'0 0.0
2015-Jul-01 16:33N 39°34' E 002°39'0 0.0
2015-Jul-01 15:33N 39°34' E 002°39'0 0.0
2015-Jul-01 14:30N 39°34' E 002°39'0 0.0
2015-Jul-01 13:33N 39°34' E 002°39'0 0.0
2015-Jul-01 12:33N 39°34' E 002°39'0 0.0
2015-Jul-01 11:33N 39°34' E 002°39'0 0.0
2015-Jul-01 10:33N 39°34' E 002°39'0 0.0
2015-Jul-01 09:33N 39°34' E 002°39'0 0.0
2015-Jul-01 08:33N 39°34' E 002°39'0 0.0
2015-Jul-01 07:33N 39°34' E 002°39'0 0.0
2015-Jul-01 06:33N 39°34' E 002°39'0 0.0
2015-Jul-01 05:33N 39°34' E 002°39'0 0.0
2015-Jul-01 04:33N 39°34' E 002°39'0 0.0
2015-Jul-01 03:33N 39°34' E 002°39'0 0.0
2015-Jul-01 02:33N 39°34' E 002°39'0 0.0
2015-Jul-01 01:33N 39°34' E 002°39'0 0.0
2015-Jun-30 23:33N 39°34' E 002°39'0 0.0
2015-Jun-30 22:33N 39°34' E 002°39'0 0.0
2015-Jun-30 21:33N 39°34' E 002°39'0 0.0
2015-Jun-30 20:33N 39°34' E 002°39'0 0.0
2015-Jun-30 19:33N 39°34' E 002°39'0 0.0
2015-Jun-30 18:33N 39°34' E 002°39'0 0.0
2015-Jun-30 17:33N 39°34' E 002°39'0 0.0
2015-Jun-30 16:33N 39°34' E 002°39'0 0.0
2015-Jun-30 15:33N 39°34' E 002°39'0 0.0
2015-Jun-30 14:33N 39°34' E 002°39'0 0.0
2015-Jun-30 13:33N 39°34' E 002°39'0 0.0
2015-Jun-30 12:30N 39°34' E 002°39'0 0.0
2015-Jun-30 11:33N 39°34' E 002°39'0 0.0
2015-Jun-30 10:33N 39°34' E 002°39'0 0.0
2015-Jun-30 09:33N 39°34' E 002°39'0 0.0
2015-Jun-30 08:33N 39°34' E 002°39'0 0.0
2015-Jun-30 07:33N 39°34' E 002°39'0 0.0
2015-Jun-30 06:33N 39°34' E 002°39'0 0.0
2015-Jun-30 05:33N 39°34' E 002°39'0 0.0
2015-Jun-30 04:33N 39°34' E 002°39'0 0.0
2015-Jun-30 03:33N 39°34' E 002°39'0 0.0
2015-Jun-30 02:33N 39°34' E 002°39'0 0.0
2015-Jun-30 01:33N 39°34' E 002°39'0 0.0
2015-Jun-30 00:33N 39°34' E 002°39'0 0.0
2015-Jun-29 23:33N 39°34' E 002°39'0 0.0
2015-Jun-29 22:33N 39°34' E 002°39'0 0.0
2015-Jun-29 21:33N 39°34' E 002°39'0 0.0
2015-Jun-29 20:33N 39°34' E 002°39'0 0.0
2015-Jun-29 19:33N 39°34' E 002°39'0 0.0
2015-Jun-29 18:33N 39°34' E 002°39'2 1.9
2015-Jun-29 17:33N 39°32' E 002°40'6 6.1
2015-Jun-29 16:33N 39°27' E 002°44'5 4.6
2015-Jun-29 15:33N 39°23' E 002°46'7 7.2
2015-Jun-29 14:33N 39°19' E 002°54'7 7.0
2015-Jun-29 13:33N 39°16' E 003°02'7 6.9
2015-Jun-29 12:29N 39°18' E 003°11'8 7.9
2015-Jun-29 11:28N 39°22' E 003°20'27 8.4
2015-Jun-29 08:16N 39°34' E 003°51'275 5.9
2015-Jun-27 09:29N 41°10' E 009°30'15 1.1
2015-Jun-26 20:33N 40°55' E 009°32'0 0.0
2015-Jun-26 19:03N 40°55' E 009°32'0 0.0
2015-Jun-26 18:33N 40°55' E 009°32'0 0.0
2015-Jun-26 17:24N 40°55' E 009°32'0 0.0
2015-Jun-26 16:24N 40°55' E 009°32'0 0.0
2015-Jun-26 15:24N 40°55' E 009°32'0 0.0
2015-Jun-26 13:24N 40°55' E 009°32'0 0.0
2015-Jun-26 12:27N 40°55' E 009°32'0 0.0
2015-Jun-26 11:27N 40°55' E 009°32'0 0.0
2015-Jun-25 06:33N 40°55' E 009°32'0 0.0
2015-Jun-25 05:33N 40°55' E 009°32'0 0.0
2015-Jun-25 04:30N 40°55' E 009°32'0 0.0
2015-Jun-25 03:33N 40°55' E 009°32'0 0.0
2015-Jun-25 02:33N 40°55' E 009°32'0 0.0
2015-Jun-25 01:33N 40°55' E 009°32'0 0.0
2015-Jun-25 00:24N 40°55' E 009°32'0 0.0
2015-Jun-24 23:27N 40°55' E 009°32'0 0.0
2015-Jun-24 22:24N 40°55' E 009°32'0 0.0
2015-Jun-24 21:27N 40°55' E 009°32'  
Track history (hours):
 
Tides and Currents Weather Stations Pressure Air Temp Water Temp Dewpoint Dewpoint Depression Visibility Wind Speed Wind Dir Waves Ship Positions

Geronimo

Last reported at 2015-Jul-04 10:33 UTC. Time now 2015-Jul-04 13:43 UTC.
Position N 38°46' E 001°25'.

Length 20 m; draft 2.9 m.

Type: Sailing vessel. MMSI: 244620501.

Date/timePositionNaut miles runAvg speedWind from/ knotsBaromVisibWave heightAir tempDewpointWater temp
2015-Jul-04 10:33N 38°46' E 001°25'1 0.5
2015-Jul-04 09:20N 38°47' E 001°26'0 0.0
2015-Jul-04 08:14N 38°47' E 001°26'0 0.0
2015-Jul-04 07:32N 38°47' E 001°26'0 0.0
2015-Jul-03 19:08N 38°47' E 001°26'0 0.0
2015-Jul-03 18:26N 38°47' E 001°26'1 0.9
2015-Jul-03 17:33N 38°46' E 001°25'8 7.7
2015-Jul-03 16:33N 38°53' E 001°30'8 7.8
2015-Jul-03 15:33N 38°58' E 001°37'7 7.2
2015-Jul-03 14:33N 39°04' E 001°43'8 8.4
2015-Jul-03 13:33N 39°09' E 001°51'8 8.1
2015-Jul-03 12:34N 39°14' E 001°59'8 8.0
2015-Jul-03 11:33N 39°19' E 002°07'8 8.2
2015-Jul-03 10:33N 39°26' E 002°14'10 0.6
2015-Jul-02 18:26N 39°32' E 002°23'0 0.0
2015-Jul-02 16:24N 39°32' E 002°23'5 5.9
2015-Jul-02 15:33N 39°29' E 002°27'7 7.3
2015-Jul-02 14:33N 39°31' E 002°36'4 3.7
2015-Jul-02 13:33N 39°34' E 002°38'0 0.4
2015-Jul-02 12:33N 39°34' E 002°39'0 0.0
2015-Jul-02 11:33N 39°34' E 002°39'0 0.0
2015-Jul-02 10:33N 39°34' E 002°39'0 0.0
2015-Jul-02 09:33N 39°34' E 002°39'0 0.0
2015-Jul-02 08:33N 39°34' E 002°39'0 0.0
2015-Jul-02 07:33N 39°34' E 002°39'0 0.0
2015-Jul-02 06:33N 39°34' E 002°39'0 0.0
2015-Jul-02 05:33N 39°34' E 002°39'0 0.0
2015-Jul-02 04:33N 39°34' E 002°39'0 0.0
2015-Jul-02 03:33N 39°34' E 002°39'0 0.0
2015-Jul-02 02:33N 39°34' E 002°39'0 0.0
2015-Jul-02 01:33N 39°34' E 002°39'0 0.0
2015-Jul-02 00:33N 39°34' E 002°39'0 0.0
2015-Jul-01 23:33N 39°34' E 002°39'0 0.0
2015-Jul-01 22:33N 39°34' E 002°39'0 0.0
2015-Jul-01 21:33N 39°34' E 002°39'0 0.0
2015-Jul-01 20:33N 39°34' E 002°39'0 0.0
2015-Jul-01 19:33N 39°34' E 002°39'0 0.0
2015-Jul-01 18:33N 39°34' E 002°39'0 0.0
2015-Jul-01 17:33N 39°34' E 002°39'0 0.0
2015-Jul-01 16:33N 39°34' E 002°39'0 0.0
2015-Jul-01 15:33N 39°34' E 002°39'0 0.0
2015-Jul-01 14:30N 39°34' E 002°39'0 0.0
2015-Jul-01 13:33N 39°34' E 002°39'0 0.0
2015-Jul-01 12:33N 39°34' E 002°39'0 0.0
2015-Jul-01 11:33N 39°34' E 002°39'0 0.0
2015-Jul-01 10:33N 39°34' E 002°39'0 0.0
2015-Jul-01 09:33N 39°34' E 002°39'0 0.0
2015-Jul-01 08:33N 39°34' E 002°39'0 0.0
2015-Jul-01 07:33N 39°34' E 002°39'0 0.0
2015-Jul-01 06:33N 39°34' E 002°39'0 0.0
2015-Jul-01 05:33N 39°34' E 002°39'0 0.0
2015-Jul-01 04:33N 39°34' E 002°39'0 0.0
2015-Jul-01 03:33N 39°34' E 002°39'0 0.0
2015-Jul-01 02:33N 39°34' E 002°39'0 0.0
2015-Jul-01 01:33N 39°34' E 002°39'0 0.0
2015-Jun-30 23:33N 39°34' E 002°39'0 0.0
2015-Jun-30 22:33N 39°34' E 002°39'0 0.0
2015-Jun-30 21:33N 39°34' E 002°39'0 0.0
2015-Jun-30 20:33N 39°34' E 002°39'0 0.0
2015-Jun-30 19:33N 39°34' E 002°39'0 0.0
2015-Jun-30 18:33N 39°34' E 002°39'0 0.0
2015-Jun-30 17:33N 39°34' E 002°39'0 0.0
2015-Jun-30 16:33N 39°34' E 002°39'0 0.0
2015-Jun-30 15:33N 39°34' E 002°39'0 0.0
2015-Jun-30 14:33N 39°34' E 002°39'0 0.0
2015-Jun-30 13:33N 39°34' E 002°39'0 0.0
2015-Jun-30 12:30N 39°34' E 002°39'0 0.0
2015-Jun-30 11:33N 39°34' E 002°39'0 0.0
2015-Jun-30 10:33N 39°34' E 002°39'0 0.0
2015-Jun-30 09:33N 39°34' E 002°39'0 0.0
2015-Jun-30 08:33N 39°34' E 002°39'0 0.0
2015-Jun-30 07:33N 39°34' E 002°39'0 0.0
2015-Jun-30 06:33N 39°34' E 002°39'0 0.0
2015-Jun-30 05:33N 39°34' E 002°39'0 0.0
2015-Jun-30 04:33N 39°34' E 002°39'0 0.0
2015-Jun-30 03:33N 39°34' E 002°39'0 0.0
2015-Jun-30 02:33N 39°34' E 002°39'0 0.0
2015-Jun-30 01:33N 39°34' E 002°39'0 0.0
2015-Jun-30 00:33N 39°34' E 002°39'0 0.0
2015-Jun-29 23:33N 39°34' E 002°39'0 0.0
2015-Jun-29 22:33N 39°34' E 002°39'0 0.0
2015-Jun-29 21:33N 39°34' E 002°39'0 0.0
2015-Jun-29 20:33N 39°34' E 002°39'0 0.0
2015-Jun-29 19:33N 39°34' E 002°39'0 0.0
2015-Jun-29 18:33N 39°34' E 002°39'2 1.9
2015-Jun-29 17:33N 39°32' E 002°40'6 6.1
2015-Jun-29 16:33N 39°27' E 002°44'5 4.6
2015-Jun-29 15:33N 39°23' E 002°46'7 7.2
2015-Jun-29 14:33N 39°19' E 002°54'7 7.0
2015-Jun-29 13:33N 39°16' E 003°02'7 6.9
2015-Jun-29 12:29N 39°18' E 003°11'8 7.9
2015-Jun-29 11:28N 39°22' E 003°20'27 8.4
2015-Jun-29 08:16N 39°34' E 003°51'275 5.9
2015-Jun-27 09:29N 41°10' E 009°30'15 1.1
2015-Jun-26 20:33N 40°55' E 009°32'0 0.0
2015-Jun-26 19:03N 40°55' E 009°32'0 0.0
2015-Jun-26 18:33N 40°55' E 009°32'0 0.0
2015-Jun-26 17:24N 40°55' E 009°32'0 0.0
2015-Jun-26 16:24N 40°55' E 009°32'0 0.0
2015-Jun-26 15:24N 40°55' E 009°32'0 0.0
2015-Jun-26 13:24N 40°55' E 009°32'0 0.0
2015-Jun-26 12:27N 40°55' E 009°32'0 0.0
2015-Jun-26 11:27N 40°55' E 009°32'0 0.0
2015-Jun-25 06:33N 40°55' E 009°32'0 0.0
2015-Jun-25 05:33N 40°55' E 009°32'0 0.0
2015-Jun-25 04:30N 40°55' E 009°32'0 0.0
2015-Jun-25 03:33N 40°55' E 009°32'0 0.0
2015-Jun-25 02:33N 40°55' E 009°32'0 0.0
2015-Jun-25 01:33N 40°55' E 009°32'0 0.0
2015-Jun-25 00:24N 40°55' E 009°32'0 0.0
2015-Jun-24 23:27N 40°55' E 009°32'0 0.0
2015-Jun-24 22:24N 40°55' E 009°32'0 0.0
2015-Jun-24 21:27N 40°55' E 009°32'  

Dump ship's entire track history